Flight Track Log - Related Links

Times and Time Zones

All times are in EDT time to prevent confusion due to time zone crossing. See the ASQ5941 flight status page for this flight to view local times or setup timezone preferences in your user account.

Time Position Orientation Groundspeed Altitude Reporting Facility
EDT Latitude Longitude Course Direction KTS MPH feet Rate Location/Type
Wed 05:18:22 PM 41.3342 -75.8411 348° North 109 125 7,500  Level New Center
Wed 05:19:22 PM 41.4047 -75.8436 358° North 175 201 8,400 908 Climbing New Center
Wed 05:20:21 PM 41.4775 -75.8492 357° North 217 250 9,300 900 Climbing New Center
Wed 05:21:22 PM 41.5500 -75.8547 357° North 260 299 10,200 744 Climbing New Center
Wed 05:22:00 PM 41.4910 -77.2522 291° West  Level Estimated
Wed 05:22:22 PM 41.5994 -75.9167 317° Northwest 247 284 10,800  Level New Center
Wed 05:23:22 PM 41.6228 -76.0044 290° West 242 278 11,300 450 Climbing New Center
Wed 05:24:22 PM 41.6517 -76.1011 292° West 264 304 11,700 500 Climbing New Center
Wed 05:25:22 PM 41.6822 -76.2119 290° West 291 335 12,300 500 Climbing New Center
Wed 05:26:22 PM 41.7086 -76.3114 290° West 291 335 12,700 450 Climbing New Center
Wed 05:27:22 PM 41.7372 -76.4139 291° West 296 341 13,200 500 Climbing New Center
Wed 05:28:22 PM 41.7694 -76.5222 292° West 301 346 13,700 500 Climbing New Center
Wed 05:29:22 PM 41.7958 -76.6219 290° West 307 353 14,200 750 Climbing New Center
Wed 05:30:22 PM 41.8275 -76.7389 290° West 319 367 15,200 1,050 Climbing New Center
Wed 05:31:22 PM 41.8611 -76.8558 291° West 325 374 16,300 1,192 Climbing New Center
Wed 05:32:53 PM 41.9108 -77.0347 291° West 336 387 18,200 1,294 Climbing Cleveland Center
Wed 05:33:55 PM 41.9428 -77.1494 291° West 332 382 19,600 1,306 Climbing Cleveland Center
Wed 05:34:57 PM 41.9733 -77.2647 290° West 328 377 20,900 1,403 Climbing Cleveland Center
Wed 05:35:59 PM 42.0114 -77.4044 290° West 330 380 22,500 1,306 Climbing Cleveland Center
Wed 05:37:01 PM 42.0428 -77.5222 290° West 333 383 23,600 1,113 Climbing Cleveland Center
Wed 05:38:03 PM 42.0750 -77.6414 290° West 337 388 24,800 1,306 Climbing Cleveland Center
Wed 05:39:05 PM 42.1053 -77.7556 290° West 327 376 26,300 1,500 Climbing Cleveland Center
Wed 05:40:07 PM 42.1358 -77.8664 290° West 318 366 27,900 1,403 Climbing Cleveland Center
Wed 05:41:09 PM 42.1636 -77.9703 290° West 300 345 29,200 1,008 Climbing Cleveland Center
Wed 05:42:12 PM 42.1903 -78.0733 289° West 292 336 30,000 384 Climbing Cleveland Center
Wed 05:43:14 PM 42.2261 -78.2097 290° West 318 366 30,000  Level Cleveland Center
Wed 05:44:16 PM 42.2586 -78.3347 289° West 347 399 30,000  Level Cleveland Center
Wed 05:45:18 PM 42.2914 -78.4661 289° West 363 418 30,000 97 Level Cleveland Center
Wed 05:46:20 PM 42.3242 -78.5953 289° West 364 419 30,200 1,016 Climbing Cleveland Center
Wed 05:47:22 PM 42.3522 -78.7125 288° West 342 394 32,100 1,887 Climbing Cleveland Center
Wed 05:48:24 PM 42.3783 -78.8186 288° West 311 358 34,100 1,839 Climbing Cleveland Center
Wed 05:49:26 PM 42.4017 -78.9228 287° West 282 325 35,900 919 Climbing Cleveland Center
Wed 05:50:28 PM 42.4092 -79.0450 275° West 282 325 36,000 48 Climbing Cleveland Center
Wed 05:51:30 PM 42.4164 -79.1581 275° West 302 348 36,000  Level Cleveland Center
Wed 05:52:32 PM 42.4244 -79.2736 275° West 313 360 36,000  Level Cleveland Center
Wed 05:53:35 PM 42.4317 -79.3969 275° West 329 379 36,000  Level Cleveland Center
Wed 05:54:37 PM 42.4400 -79.5236 275° West 340 391 36,000  Level Cleveland Center
Wed 05:55:39 PM 42.4486 -79.6736 274° West 336 387 36,000  Level Cleveland Center
Wed 05:56:41 PM 42.4556 -79.7922 275° West 324 373 36,000  Level Cleveland Center
Wed 05:57:43 PM 42.4633 -79.9153 275° West 326 375 36,000  Level Cleveland Center
Wed 05:58:45 PM 42.4672 -80.0428 272° West 319 367 36,000  Level Cleveland Center
Wed 05:59:47 PM 42.4756 -80.1636 275° West 319 367 36,000  Level Cleveland Center
Wed 06:01:00 PM 42.4830 -80.3114 274° West  Level FlightAware
Wed 06:01:51 PM 42.4892 -80.4047 274° West 318 366 36,000  Level Cleveland Center
Wed 06:02:53 PM 42.4956 -80.5256 274° West 319 367 36,000  Level Cleveland Center
Wed 06:03:55 PM 42.5011 -80.6450 274° West 317 365 36,000  Level Cleveland Center
Wed 06:04:57 PM 42.5078 -80.7883 274° West 326 375 36,000  Level Cleveland Center
Wed 06:05:59 PM 42.5108 -80.9069 272° West 317 365 36,000  Level Cleveland Center
Wed 06:07:02 PM 42.5150 -81.0261 273° West 315 362 36,000  Level Cleveland Center
Wed 06:08:04 PM 42.5175 -81.1442 272° West 313 360 36,000  Level Cleveland Center
Wed 06:09:06 PM 42.5219 -81.2647 273° West 317 365 36,000  Level Cleveland Center
Wed 06:10:08 PM 42.5353 -81.3872 278° West 325 374 36,000  Level Cleveland Center
Wed 06:11:10 PM 42.5511 -81.5303 279° West 328 377 36,000  Level Cleveland Center
Wed 06:12:12 PM 42.5639 -81.6497 278° West 321 369 36,000  Level Cleveland Center
Wed 06:13:14 PM 42.5775 -81.7686 279° West 319 367 36,000  Level Cleveland Center
Wed 06:14:16 PM 42.5894 -81.8806 278° West 315 362 36,000  Level Cleveland Center
Wed 06:15:18 PM 42.6022 -81.9969 279° West 314 361 36,000  Level Cleveland Center
Wed 06:16:20 PM 42.6175 -82.1342 279° West 309 356 36,000  Level Cleveland Center
Wed 06:17:22 PM 42.6297 -82.2486 278° West 308 354 36,000  Level Cleveland Center
Wed 06:18:24 PM 42.6419 -82.3622 278° West 307 353 36,000  Level Cleveland Center
Wed 06:19:26 PM 42.6533 -82.4758 278° West 305 351 36,000  Level Cleveland Center
Wed 06:20:28 PM 42.6656 -82.5900 278° West 307 353 36,000  Level Cleveland Center
Wed 06:21:30 PM 42.6778 -82.7047 278° West 308 354 36,000  Level Cleveland Center
Wed 06:22:33 PM 42.6922 -82.8492 278° West 318 366 36,000  Level Cleveland Center
Wed 06:23:35 PM 42.7044 -82.9700 278° West 326 375 36,000  Level Cleveland Center
Wed 06:24:37 PM 42.7172 -83.0869 278° West 318 366 36,000  Level Cleveland Center
Wed 06:25:39 PM 42.7311 -83.2003 280° West 309 356 36,000  Level Cleveland Center
Wed 06:26:41 PM 42.7450 -83.3133 280° West 307 353 36,000 -581 Level Cleveland Center
Wed 06:27:43 PM 42.7600 -83.4603 278° West 327 376 34,800 -1,065 Descending Cleveland Center
Wed 06:28:45 PM 42.7744 -83.5831 279° West 332 382 33,800 -1,306 Descending Cleveland Center
Wed 06:29:47 PM 42.7878 -83.7025 279° West 324 373 32,100 -871 Descending Cleveland Center
Wed 06:30:49 PM 42.8022 -83.8181 280° West 313 360 32,000 -387 Descending Cleveland Center
Wed 06:31:51 PM 42.8153 -83.9442 278° West 332 382 31,300 -968 Descending Cleveland Center
Wed 06:32:53 PM 42.8281 -84.1044 276° West 356 410 30,000 -629 Descending Cleveland Center
Wed 06:33:55 PM 42.8317 -84.2447 272° West 370 426 30,000  Level Cleveland Center
Wed 06:34:57 PM 42.8381 -84.4008 273° West 382 440 30,000  Level Cleveland Center
Wed 06:35:29 PM 42.8381 -84.4603 270° West 380 437 30,000  Level Chicago Center
Wed 06:36:31 PM 42.8414 -84.6058 272° West 385 443 30,000  Level Chicago Center
Wed 06:37:33 PM 42.8458 -84.7783 272° West 382 440 30,000  Level Chicago Center
Wed 06:38:35 PM 42.8486 -84.9183 272° West 374 430 30,000  Level Chicago Center
Wed 06:39:37 PM 42.8356 -85.0533 263° West 363 418 30,000 -290 Level Chicago Center
Wed 06:40:39 PM 42.8206 -85.1892 261° West 360 414 29,400 -823 Descending Chicago Center
Wed 06:41:41 PM 42.8056 -85.3292 262° West 372 428 28,300 -1,065 Descending Chicago Center
Wed 06:42:43 PM 42.7892 -85.4767 261° West 388 447 27,200 -1,073 Descending Chicago Center
Wed 06:43:44 PM 42.7644 -85.6250 257° West 398 458 26,100 -1,122 Descending Chicago Center
Wed 06:44:46 PM 42.7372 -85.7750 256° West 405 466 24,900 -1,258 Descending Chicago Center
Wed 06:45:48 PM 42.7053 -85.9481 256° West 392 451 23,500 -1,403 Descending Chicago Center
Wed 06:46:50 PM 42.6789 -86.0917 256° West 389 448 22,000 -1,597 Descending Chicago Center
Wed 06:47:52 PM 42.6542 -86.2322 257° West 384 442 20,200 -968 Descending Chicago Center
Wed 06:48:54 PM 42.6281 -86.3619 255° West 360 414 20,000 -97 Descending Chicago Center
Wed 06:49:56 PM 42.6028 -86.4958 256° West 364 419 20,000 -537 Level Chicago Center
Wed 06:50:57 PM 42.5772 -86.6317 256° West 371 427 18,900 -1,512 Descending Chicago Center
Wed 06:51:59 PM 42.5478 -86.7833 255° West 364 419 16,900 -2,129 Descending Chicago Center
Wed 06:53:01 PM 42.5100 -86.9133 249° West 355 409 14,500 -2,323 Descending Chicago Center
Wed 06:54:03 PM 42.4789 -87.0328 251° West 341 392 12,100 -2,081 Descending Chicago Center
Wed 06:55:05 PM 42.4503 -87.1328 249° West 289 333 10,200 -1,452 Descending Chicago Center
Wed 06:56:07 PM 42.3928 -87.1836 213° Southwest 275 316 9,100 -581 Descending Chicago Center
Wed 06:57:09 PM 42.3072 -87.1894 183° South 274 315 9,000 -242 Descending Chicago Center
Wed 06:58:11 PM 42.2344 -87.1922 182° South 266 306 8,600 -709 Descending Chicago Center
Wed 06:59:16 PM 42.1597 -87.1942 181° South 268 308 7,500 -756 Descending Chicago Center
Wed 07:00:18 PM 42.0894 -87.1950 181° South 257 296 7,000 -242 Descending Chicago Center
Wed 07:01:20 PM 42.0217 -87.2539 213° Southwest 242 278 7,000  Level Chicago Center
Wed 07:02:21 PM 41.9825 -87.3275 234° Southwest 246 283 7,000  Level Chicago Center
Wed 07:03:23 PM 41.9844 -87.4167 272° West 249 287 7,000 -387 Level Chicago Center
Wed 07:04:25 PM 41.9828 -87.5081 269° West 248 285 6,200 -1,016 Descending Chicago Center
Wed 07:05:27 PM 41.9836 -87.5953 271° West 242 278 4,900 -1,320 Descending Chicago Center
Wed 07:06:05 PM 41.9833 -87.6500 270° West 219 252 4,000 -1,129 Descending Chicago TRACON
Wed 07:08:33 PM 41.9831 -87.8411 270° West 200 230 1,400 -995 Descending Chicago Center
Wed 07:09:12 PM 41.9833 -87.8833 271° West 140 161 900 -769 Descending Chicago TRACON

Login

Don't have an account? Register now (free) for customized features, flight alerts, and more!